createdAt,value
2023-03-30T00:00:19.019Z,18.33
2023-03-30T00:05:45.723Z,20.30
2023-03-30T00:10:55.133Z,20.33
2023-03-30T00:16:01.516Z,15.48
2023-03-30T00:21:09.890Z,13.60
2023-03-30T00:26:18.763Z,21.13
2023-03-30T00:31:25.064Z,19.77
2023-03-30T00:36:37.358Z,23.52
2023-03-30T00:41:45.108Z,16.95
2023-03-30T00:46:51.620Z,16.42
2023-03-30T00:51:58.020Z,19.70
2023-03-30T00:57:07.850Z,18.08
2023-03-30T01:02:14.796Z,18.90
2023-03-30T01:07:24.598Z,18.80
2023-03-30T01:12:32.404Z,19.88
2023-03-30T01:18:01.007Z,20.80
2023-03-30T01:23:48.988Z,16.40
2023-03-30T01:29:04.727Z,11.97
2023-03-30T01:34:58.136Z,18.77
2023-03-30T01:40:13.511Z,18.25
2023-03-30T01:45:30.183Z,15.30
2023-03-30T01:50:42.117Z,18.60
2023-03-30T01:55:57.279Z,19.42
2023-03-30T02:01:08.228Z,17.25
2023-03-30T02:06:23.733Z,17.80
2023-03-30T02:11:35.583Z,16.27
2023-03-30T02:16:49.311Z,15.88
2023-03-30T02:21:56.571Z,19.15
2023-03-30T02:27:06.234Z,17.13
2023-03-30T02:37:45.336Z,15.80
2023-03-30T02:43:09.121Z,21.17
2023-03-30T02:48:31.167Z,15.15
2023-03-30T02:53:46.802Z,19.20
2023-03-30T02:59:14.584Z,17.42
2023-03-30T03:04:24.002Z,15.55
2023-03-30T03:09:49.666Z,19.50
2023-03-30T03:14:58.157Z,19.42
2023-03-30T03:20:06.439Z,18.60
2023-03-30T03:25:13.247Z,15.40
2023-03-30T03:30:34.354Z,13.95
2023-03-30T03:36:00.560Z,17.00
2023-03-30T03:41:09.820Z,15.20
2023-03-30T03:46:19.320Z,19.10
2023-03-30T03:51:25.850Z,12.77
2023-03-30T03:56:32.618Z,13.30
2023-03-30T04:01:40.774Z,18.48
2023-03-30T04:06:48.115Z,18.33
2023-03-30T04:11:54.424Z,18.58
2023-03-30T04:17:18.424Z,14.45
2023-03-30T04:22:50.637Z,17.92
2023-03-30T04:28:11.994Z,18.88
2023-03-30T04:33:47.415Z,22.95
2023-03-30T04:39:18.461Z,23.17
2023-03-30T04:44:44.514Z,23.52
2023-03-30T04:50:02.987Z,23.15
2023-03-30T04:55:28.319Z,19.63
2023-03-30T05:00:58.665Z,20.60
2023-03-30T05:06:35.981Z,18.27
2023-03-30T05:12:15.179Z,22.70
2023-03-30T05:17:38.875Z,22.17
2023-03-30T05:23:09.041Z,27.60
2023-03-30T05:28:34.016Z,23.00
2023-03-30T05:34:07.024Z,19.27
2023-03-30T05:39:33.620Z,23.40
2023-03-30T05:45:11.514Z,19.48
2023-03-30T05:50:24.700Z,27.45
2023-03-30T05:55:39.724Z,22.15
2023-03-30T06:01:06.173Z,23.48
2023-03-30T06:06:18.330Z,15.27
2023-03-30T06:11:29.577Z,18.38
2023-03-30T06:16:46.641Z,19.08
2023-03-30T06:21:54.855Z,23.00
2023-03-30T06:27:08.698Z,18.55
2023-03-30T06:32:15.770Z,18.40
2023-03-30T06:37:45.330Z,18.50
2023-03-30T06:42:53.567Z,15.90
2023-03-30T06:48:07.495Z,18.02
2023-03-30T06:53:18.193Z,17.55
2023-03-30T06:58:30.116Z,16.70
2023-03-30T07:03:36.532Z,18.67
2023-03-30T07:08:58.862Z,14.27
2023-03-30T07:14:07.817Z,18.30
2023-03-30T07:19:14.942Z,14.63
2023-03-30T07:24:21.583Z,24.70
2023-03-30T07:29:29.690Z,18.63
2023-03-30T07:34:36.690Z,16.77
2023-03-30T07:39:43.620Z,18.55
2023-03-30T07:44:52.665Z,15.98
2023-03-30T07:50:02.455Z,15.02
2023-03-30T07:55:11.369Z,15.40
2023-03-30T08:00:28.852Z,13.18
2023-03-30T08:06:01.012Z,16.05
2023-03-30T08:11:11.624Z,17.08
2023-03-30T08:16:22.262Z,16.80
2023-03-30T08:21:28.808Z,14.93
2023-03-30T08:26:36.623Z,16.88
2023-03-30T08:31:44.295Z,16.55
2023-03-30T08:36:50.562Z,15.38
2023-03-30T08:42:23.848Z,15.75
2023-03-30T08:47:54.616Z,20.00
2023-03-30T08:58:18.294Z,14.10
2023-03-30T09:03:38.640Z,17.05
2023-03-30T09:08:45.622Z,17.05
2023-03-30T09:13:53.365Z,13.13
2023-03-30T09:19:05.573Z,14.75
2023-03-30T09:24:20.601Z,19.45
2023-03-30T09:29:31.774Z,14.00
2023-03-30T09:34:47.640Z,11.80
2023-03-30T09:39:54.221Z,18.98
2023-03-30T09:45:07.584Z,15.13
2023-03-30T09:50:23.549Z,19.85
2023-03-30T09:55:33.263Z,25.42
2023-03-30T10:00:40.104Z,17.48
2023-03-30T10:06:02.360Z,15.50
2023-03-30T10:11:09.468Z,18.85
2023-03-30T10:16:27.948Z,21.17
2023-03-30T10:21:41.485Z,15.00
2023-03-30T10:26:49.082Z,20.52
2023-03-30T10:32:03.758Z,12.68
2023-03-30T10:37:17.405Z,10.48
2023-03-30T10:42:28.248Z,16.05
2023-03-30T10:47:54.668Z,14.85
2023-03-30T10:53:21.632Z,10.60
2023-03-30T10:58:54.600Z,16.65
2023-03-30T11:04:20.470Z,11.45
2023-03-30T11:09:34.191Z,12.25
2023-03-30T11:14:49.056Z,11.88
2023-03-30T11:20:00.606Z,11.35
2023-03-30T11:25:23.763Z,12.75
2023-03-30T11:30:33.396Z,9.02
2023-03-30T11:35:47.563Z,10.57
2023-03-30T11:41:00.700Z,13.25
2023-03-30T11:46:16.282Z,13.90
2023-03-30T11:51:53.008Z,8.93
2023-03-30T11:57:11.499Z,11.52
2023-03-30T12:02:33.344Z,11.60
2023-03-30T12:07:50.261Z,15.85
2023-03-30T12:12:59.469Z,11.52
2023-03-30T12:18:17.418Z,12.38
2023-03-30T12:23:38.165Z,8.40
2023-03-30T12:29:40.582Z,10.38
2023-03-30T12:34:27.877Z,8.75
2023-03-30T12:39:45.363Z,8.82
2023-03-30T12:45:26.553Z,11.30
2023-03-30T12:50:45.630Z,13.65
2023-03-30T12:56:01.927Z,12.73
2023-03-30T13:01:38.901Z,12.93
2023-03-30T13:06:54.107Z,11.35
2023-03-30T13:12:44.457Z,12.02
2023-03-30T13:18:02.321Z,10.02
2023-03-30T13:23:34.135Z,10.98
2023-03-30T13:29:06.396Z,9.02
2023-03-30T13:34:33.055Z,12.48
2023-03-30T13:39:47.548Z,7.95
2023-03-30T13:45:06.397Z,7.78
2023-03-30T13:50:26.115Z,7.93
2023-03-30T13:55:39.306Z,9.57
2023-03-30T14:00:51.684Z,6.65
2023-03-30T14:06:05.879Z,7.07
2023-03-30T14:11:20.002Z,5.75
2023-03-30T14:16:29.122Z,7.57
2023-03-30T14:21:40.376Z,9.77
2023-03-30T14:26:50.690Z,6.35
2023-03-30T14:32:07.297Z,7.18
2023-03-30T14:37:20.550Z,8.27
2023-03-30T14:42:34.095Z,4.03
2023-03-30T14:47:41.075Z,8.80
2023-03-30T14:52:50.806Z,8.93
2023-03-30T14:57:57.659Z,10.43
2023-03-30T15:03:06.161Z,9.05
2023-03-30T15:08:23.190Z,6.53
2023-03-30T15:13:37.727Z,6.65
2023-03-30T15:18:44.582Z,8.73
2023-03-30T15:23:53.551Z,11.45
2023-03-30T15:29:01.987Z,8.45
2023-03-30T15:34:17.103Z,6.07
2023-03-30T15:39:34.036Z,7.20
2023-03-30T15:44:42.339Z,11.18
2023-03-30T15:49:52.892Z,16.87
2023-03-30T15:55:08.594Z,23.63
2023-03-30T16:00:20.750Z,17.40
2023-03-30T16:05:29.346Z,17.80
2023-03-30T16:10:38.899Z,28.27
2023-03-30T16:15:45.682Z,19.90
2023-03-30T16:20:52.616Z,21.45
2023-03-30T16:26:02.234Z,18.48
2023-03-30T16:31:16.845Z,14.77
2023-03-30T16:36:26.060Z,9.85
2023-03-30T16:41:34.798Z,9.38
2023-03-30T16:46:42.614Z,10.32
2023-03-30T16:51:50.774Z,10.55
2023-03-30T16:56:59.018Z,10.90
2023-03-30T17:02:08.347Z,11.00
2023-03-30T17:07:19.730Z,12.05
2023-03-30T17:12:28.457Z,10.55
2023-03-30T17:17:37.381Z,7.93
2023-03-30T17:27:56.364Z,13.70
2023-03-30T17:33:04.757Z,13.25
2023-03-30T17:38:15.326Z,15.45
2023-03-30T17:43:25.728Z,12.05
2023-03-30T17:48:34.095Z,13.57
2023-03-30T17:53:44.871Z,16.38
2023-03-30T17:58:55.189Z,14.10
2023-03-30T18:04:04.820Z,15.90
2023-03-30T18:09:18.862Z,14.95
2023-03-30T18:14:35.487Z,12.10
2023-03-30T18:19:44.896Z,20.48
2023-03-30T18:24:57.433Z,20.17
2023-03-30T18:30:20.372Z,28.77
2023-03-30T18:35:33.438Z,23.52
2023-03-30T18:40:46.349Z,27.13
2023-03-30T18:46:02.261Z,20.67
2023-03-30T18:51:14.926Z,20.13
2023-03-30T18:56:25.181Z,22.92
2023-03-30T19:01:39.494Z,27.15
2023-03-30T19:06:49.747Z,25.40
2023-03-30T19:12:00.349Z,21.50
2023-03-30T19:17:12.288Z,23.63
2023-03-30T19:22:22.537Z,27.30
2023-03-30T19:27:32.733Z,34.25
2023-03-30T19:32:44.274Z,29.60
2023-03-30T19:37:56.739Z,24.50
2023-03-30T19:43:05.438Z,25.58
2023-03-30T19:48:22.047Z,22.25
2023-03-30T19:53:32.130Z,22.52
2023-03-30T19:58:43.972Z,23.88
2023-03-30T20:03:57.632Z,22.80
2023-03-30T20:09:05.612Z,23.48
2023-03-30T20:14:13.725Z,20.50
2023-03-30T20:19:29.324Z,20.60
2023-03-30T20:24:59.260Z,19.65
2023-03-30T20:30:09.461Z,17.00
2023-03-30T20:35:20.352Z,16.88
2023-03-30T20:40:28.085Z,17.63
2023-03-30T20:45:46.836Z,17.25
2023-03-30T20:56:06.035Z,14.35
2023-03-30T21:01:18.939Z,19.70
2023-03-30T21:06:29.138Z,16.58
2023-03-30T21:11:39.354Z,17.83
2023-03-30T21:16:48.077Z,18.77
2023-03-30T21:27:02.569Z,17.45
2023-03-30T21:32:09.268Z,17.73
2023-03-30T21:37:18.182Z,20.02
2023-03-30T21:42:25.232Z,17.75
2023-03-30T21:47:50.068Z,20.35
2023-03-30T21:53:01.135Z,21.08
2023-03-30T21:58:07.604Z,16.92
2023-03-30T22:03:14.328Z,14.57
2023-03-30T22:08:22.228Z,15.52
2023-03-30T22:13:29.579Z,13.40
2023-03-30T22:18:37.603Z,15.40
2023-03-30T22:23:45.524Z,14.95
2023-03-30T22:28:51.941Z,15.40
2023-03-30T22:33:58.642Z,16.23
2023-03-30T22:39:10.936Z,20.70
2023-03-30T22:44:18.507Z,14.05
2023-03-30T22:49:25.679Z,12.90
2023-03-30T22:54:33.930Z,12.32
2023-03-30T22:59:40.269Z,11.00
2023-03-30T23:04:49.514Z,11.68
2023-03-30T23:09:58.858Z,10.60
2023-03-30T23:15:05.713Z,8.85
2023-03-30T23:20:13.410Z,9.73
2023-03-30T23:25:21.505Z,12.20
2023-03-30T23:30:28.060Z,8.82
2023-03-30T23:35:34.618Z,7.00
2023-03-30T23:40:42.606Z,8.63
2023-03-30T23:45:49.319Z,8.68
2023-03-30T23:50:55.915Z,6.95
2023-03-30T23:56:06.642Z,6.95
